Despina — SVDK — position and weather

sailwx.info

Track history (hours):
 
Tides and Currents Weather Stations Pressure Air Temp Water Temp Dewpoint Dewpoint Depression Visibility Wind Speed Wind Dir Waves Ship Positions

Despina

Last reported at 2015-Jul-28 07:32 UTC. Time now 2015-Jul-28 08:28 UTC.
Position N 44°43' E 037°49'.

Length 225 m; draft 7.2 m.

Type: Cargo ship. MMSI: 239469000.

Date/timePositionNaut miles runAvg speedWind from/ knotsBaromVisibWave heightAir tempDewpointWater temp
2015-Jul-28 07:32N 44°43' E 037°49'0 0.0
2015-Jul-28 06:32N 44°43' E 037°49'0 0.0
2015-Jul-28 05:32N 44°43' E 037°49'0 0.0
2015-Jul-28 04:32N 44°43' E 037°49'0 0.0
2015-Jul-28 03:32N 44°43' E 037°49'0 0.0
2015-Jul-28 02:32N 44°43' E 037°49'0 0.0
2015-Jul-28 01:32N 44°43' E 037°49'0 0.0
2015-Jul-28 00:32N 44°43' E 037°49'0 0.0
2015-Jul-27 23:32N 44°43' E 037°49'0 0.0
2015-Jul-27 22:32N 44°43' E 037°49'0 0.0
2015-Jul-27 21:32N 44°43' E 037°49'0 0.0
2015-Jul-27 20:32N 44°43' E 037°49'0 0.0
2015-Jul-27 19:32N 44°43' E 037°49'0 0.0
2015-Jul-27 18:32N 44°43' E 037°49'0 0.0
2015-Jul-27 17:32N 44°43' E 037°49'0 0.0
2015-Jul-27 16:32N 44°43' E 037°49'0 0.0
2015-Jul-27 15:32N 44°43' E 037°49'0 0.0
2015-Jul-27 14:32N 44°43' E 037°49'0 0.0
2015-Jul-27 13:33N 44°43' E 037°49'6 6.1
2015-Jul-27 12:34N 44°37' E 037°52'6 6.0
2015-Jul-27 11:34N 44°32' E 037°56'1 1.2
2015-Jul-27 10:33N 44°34' E 037°57'0 0.0
2015-Jul-27 09:33N 44°34' E 037°57'0 0.0
2015-Jul-27 08:33N 44°34' E 037°57'0 0.0
2015-Jul-27 07:33N 44°34' E 037°57'0 0.0
2015-Jul-27 06:33N 44°34' E 037°57'0 0.0
2015-Jul-27 05:33N 44°34' E 037°57'0 0.0
2015-Jul-27 04:33N 44°34' E 037°57'0 0.4
2015-Jul-27 03:33N 44°33' E 037°56'8 8.0
2015-Jul-27 02:33N 44°30' E 037°46'1313.2
2015-Jul-27 01:33N 44°24' E 037°30'1312.9
2015-Jul-27 00:33N 44°18' E 037°13'1212.5
2015-Jul-26 23:33N 44°13' E 036°58'1312.5
2015-Jul-26 22:33N 44°07' E 036°43'1312.8
2015-Jul-26 21:33N 44°01' E 036°27'1313.2
2015-Jul-26 20:33N 43°55' E 036°11'1313.5
2015-Jul-26 19:33N 43°49' E 035°54'1313.2
2015-Jul-26 18:33N 43°43' E 035°38'2 2.0
2015-Jul-26 17:33N 43°45' E 035°38'3 3.5
2015-Jul-26 16:33N 43°44' E 035°43'1313.2
2015-Jul-26 15:33N 43°38' E 035°27'1313.1
2015-Jul-26 14:33N 43°32' E 035°10'1313.3
2015-Jul-26 13:34N 43°26' E 034°54'1313.3
2015-Jul-26 12:34N 43°20' E 034°38'1313.4
2015-Jul-26 11:33N 43°13' E 034°22'  
2015-Jul-24 01:34N 37°52' E 024°36'2813.9
2015-Jul-23 23:32N 37°27' E 024°19'1413.4
2015-Jul-23 22:29N 37°16' E 024°09'1614.0
2015-Jul-23 21:20N 37°03' E 023°57'1114.2
2015-Jul-23 20:33N 36°54' E 023°48'  
Track history (hours):
 
Tides and Currents Weather Stations Pressure Air Temp Water Temp Dewpoint Dewpoint Depression Visibility Wind Speed Wind Dir Waves Ship Positions

Despina

Last reported at 2015-Jul-28 07:32 UTC. Time now 2015-Jul-28 08:28 UTC.
Position N 44°43' E 037°49'.

Length 225 m; draft 7.2 m.

Type: Cargo ship. MMSI: 239469000.

Date/timePositionNaut miles runAvg speedWind from/ knotsBaromVisibWave heightAir tempDewpointWater temp
2015-Jul-28 07:32N 44°43' E 037°49'0 0.0
2015-Jul-28 06:32N 44°43' E 037°49'0 0.0
2015-Jul-28 05:32N 44°43' E 037°49'0 0.0
2015-Jul-28 04:32N 44°43' E 037°49'0 0.0
2015-Jul-28 03:32N 44°43' E 037°49'0 0.0
2015-Jul-28 02:32N 44°43' E 037°49'0 0.0
2015-Jul-28 01:32N 44°43' E 037°49'0 0.0
2015-Jul-28 00:32N 44°43' E 037°49'0 0.0
2015-Jul-27 23:32N 44°43' E 037°49'0 0.0
2015-Jul-27 22:32N 44°43' E 037°49'0 0.0
2015-Jul-27 21:32N 44°43' E 037°49'0 0.0
2015-Jul-27 20:32N 44°43' E 037°49'0 0.0
2015-Jul-27 19:32N 44°43' E 037°49'0 0.0
2015-Jul-27 18:32N 44°43' E 037°49'0 0.0
2015-Jul-27 17:32N 44°43' E 037°49'0 0.0
2015-Jul-27 16:32N 44°43' E 037°49'0 0.0
2015-Jul-27 15:32N 44°43' E 037°49'0 0.0
2015-Jul-27 14:32N 44°43' E 037°49'0 0.0
2015-Jul-27 13:33N 44°43' E 037°49'6 6.1
2015-Jul-27 12:34N 44°37' E 037°52'6 6.0
2015-Jul-27 11:34N 44°32' E 037°56'1 1.2
2015-Jul-27 10:33N 44°34' E 037°57'0 0.0
2015-Jul-27 09:33N 44°34' E 037°57'0 0.0
2015-Jul-27 08:33N 44°34' E 037°57'0 0.0
2015-Jul-27 07:33N 44°34' E 037°57'0 0.0
2015-Jul-27 06:33N 44°34' E 037°57'0 0.0
2015-Jul-27 05:33N 44°34' E 037°57'0 0.0
2015-Jul-27 04:33N 44°34' E 037°57'0 0.4
2015-Jul-27 03:33N 44°33' E 037°56'8 8.0
2015-Jul-27 02:33N 44°30' E 037°46'1313.2
2015-Jul-27 01:33N 44°24' E 037°30'1312.9
2015-Jul-27 00:33N 44°18' E 037°13'1212.5
2015-Jul-26 23:33N 44°13' E 036°58'1312.5
2015-Jul-26 22:33N 44°07' E 036°43'1312.8
2015-Jul-26 21:33N 44°01' E 036°27'1313.2
2015-Jul-26 20:33N 43°55' E 036°11'1313.5
2015-Jul-26 19:33N 43°49' E 035°54'1313.2
2015-Jul-26 18:33N 43°43' E 035°38'2 2.0
2015-Jul-26 17:33N 43°45' E 035°38'3 3.5
2015-Jul-26 16:33N 43°44' E 035°43'1313.2
2015-Jul-26 15:33N 43°38' E 035°27'1313.1
2015-Jul-26 14:33N 43°32' E 035°10'1313.3
2015-Jul-26 13:34N 43°26' E 034°54'1313.3
2015-Jul-26 12:34N 43°20' E 034°38'1313.4
2015-Jul-26 11:33N 43°13' E 034°22'  
2015-Jul-24 01:34N 37°52' E 024°36'2813.9
2015-Jul-23 23:32N 37°27' E 024°19'1413.4
2015-Jul-23 22:29N 37°16' E 024°09'1614.0
2015-Jul-23 21:20N 37°03' E 023°57'1114.2
2015-Jul-23 20:33N 36°54' E 023°48'  

Dump ship's entire track history